Time;durP1;ratioP1;P1;durP2;ratioP2;P2;SDS_P1;SDS_P2;PMS_P1;PMS_P2;Temp;Humidity;BMP_temperature;BMP_pressure;BME280_temperature;BME280_humidity;BME280_pressure;Samples;Min_cycle;Max_cycle;Signal;HPM_P1;HPM_P2
2022/06/18 00:04:55;;;;;;;3.13;2.90;;;23.40;26.20;;;;;;10553802;28;20226;-75
2022/06/18 00:10:04;;;;;;;3.23;3.03;;;23.30;26.50;;;;;;10551598;28;20315;-75
2022/06/18 00:15:12;;;;;;;3.20;3.00;;;23.30;26.70;;;;;;10541830;28;20315;-75
2022/06/18 00:20:19;;;;;;;3.03;2.83;;;23.20;27.00;;;;;;10550185;28;20234;-75
2022/06/18 00:25:34;;;;;;;3.50;2.80;;;23.10;27.50;;;;;;10554811;28;20276;-75
2022/06/18 00:30:38;;;;;;;3.37;3.00;;;23.10;26.60;;;;;;10556853;28;20222;-75
2022/06/18 00:35:44;;;;;;;4.40;3.33;;;23.00;26.70;;;;;;10555198;28;20703;-75
2022/06/18 00:40:47;;;;;;;3.13;2.93;;;22.90;27.30;;;;;;10563774;27;20222;-75
2022/06/18 00:45:53;;;;;;;3.17;2.97;;;22.80;26.70;;;;;;10556177;27;20223;-75
2022/06/18 00:51:04;;;;;;;3.60;3.30;;;22.80;27.20;;;;;;10560208;27;20302;-76
2022/06/18 00:56:13;;;;;;;3.13;2.93;;;22.70;27.40;;;;;;10560492;27;20219;-76
2022/06/18 01:01:21;;;;;;;3.30;3.00;;;22.60;27.10;;;;;;10555776;27;20857;-76
2022/06/18 01:06:29;;;;;;;3.60;3.30;;;22.50;27.10;;;;;;10560039;28;20553;-76
2022/06/18 01:11:37;;;;;;;3.70;3.40;;;22.40;27.60;;;;;;10548534;28;20626;-77
2022/06/18 01:16:40;;;;;;;3.20;3.00;;;22.20;27.70;;;;;;10561456;28;20223;-75
2022/06/18 01:21:54;;;;;;;3.33;3.13;;;22.10;26.80;;;;;;10557817;28;20581;-75
2022/06/18 01:26:58;;;;;;;3.40;3.20;;;21.90;28.20;;;;;;10552730;28;20230;-75
2022/06/18 01:32:02;;;;;;;3.80;3.40;;;21.80;27.80;;;;;;10551814;28;20211;-75
2022/06/18 01:37:07;;;;;;;4.00;3.70;;;21.70;27.70;;;;;;10564704;27;20223;-74
2022/06/18 01:42:15;;;;;;;3.50;3.20;;;21.50;27.80;;;;;;10587471;27;20714;-74
2022/06/18 01:47:22;;;;;;;6.03;3.80;;;21.40;28.60;;;;;;10558447;28;20231;-74
2022/06/18 01:52:31;;;;;;;3.63;3.40;;;21.30;28.30;;;;;;10570049;27;20312;-74
2022/06/18 01:57:42;;;;;;;3.73;3.27;;;21.10;29.00;;;;;;10582942;27;20230;-74
2022/06/18 02:02:46;;;;;;;3.20;3.00;;;20.90;29.10;;;;;;10583612;27;20224;-75
2022/06/18 02:07:51;;;;;;;4.70;3.67;;;20.80;28.30;;;;;;10557590;28;20240;-74
2022/06/18 02:12:59;;;;;;;3.90;3.50;;;20.70;28.70;;;;;;10573004;28;20235;-74
2022/06/18 02:18:06;;;;;;;3.43;3.13;;;20.70;29.30;;;;;;10568573;27;20226;-74
2022/06/18 02:23:09;;;;;;;3.77;3.47;;;20.70;29.10;;;;;;10589328;27;20237;-74
2022/06/18 02:28:24;;;;;;;3.90;3.60;;;20.70;28.80;;;;;;10581239;27;20703;-74
2022/06/18 02:33:32;;;;;;;3.77;3.47;;;20.60;29.60;;;;;;10578336;27;20222;-74
2022/06/18 02:38:36;;;;;;;3.50;3.20;;;20.40;29.70;;;;;;10572896;28;20601;-74
2022/06/18 02:43:42;;;;;;;3.87;3.57;;;20.20;28.70;;;;;;10580700;27;20728;-74
2022/06/18 02:48:46;;;;;;;3.73;3.30;;;20.10;29.80;;;;;;10574126;27;20230;-74
2022/06/18 02:53:49;;;;;;;4.00;3.63;;;20.00;29.30;;;;;;10572024;27;20227;-75
2022/06/18 02:58:54;;;;;;;5.23;3.87;;;20.10;29.40;;;;;;10574015;27;20215;-75
2022/06/18 03:03:59;;;;;;;3.07;2.77;;;20.10;29.90;;;;;;10576115;27;20236;-74
2022/06/18 03:09:04;;;;;;;3.30;3.00;;;20.10;29.60;;;;;;10582298;27;20227;-74
2022/06/18 03:14:09;;;;;;;3.57;2.43;;;20.10;30.10;;;;;;10559668;27;20229;-74
2022/06/18 03:19:26;;;;;;;6.23;3.27;;;20.10;29.90;;;;;;10563108;28;20233;-74
2022/06/18 03:24:29;;;;;;;3.90;3.50;;;20.20;30.40;;;;;;10564935;27;20230;-74
2022/06/18 03:29:33;;;;;;;3.50;3.20;;;20.00;29.50;;;;;;10571917;28;20232;-74
2022/06/18 03:34:37;;;;;;;4.30;3.50;;;19.90;29.80;;;;;;10555800;27;20229;-74
2022/06/18 03:39:40;;;;;;;3.50;3.20;;;19.80;29.80;;;;;;10560547;28;20223;-74
2022/06/18 03:44:45;;;;;;;4.50;3.27;;;19.80;29.90;;;;;;10566153;27;20227;-74
2022/06/18 03:49:48;;;;;;;4.37;2.97;;;19.70;30.20;;;;;;10570252;28;20223;-74
2022/06/18 03:54:51;;;;;;;3.90;3.60;;;19.70;29.90;;;;;;10565715;27;20230;-74
2022/06/18 03:59:56;;;;;;;3.50;3.20;;;19.70;30.00;;;;;;10568782;27;20225;-74
2022/06/18 04:04:59;;;;;;;3.50;3.20;;;19.70;30.50;;;;;;10518984;28;20620;-74
2022/06/18 04:10:02;;;;;;;3.30;3.10;;;19.70;30.10;;;;;;10537565;28;20241;-74
2022/06/18 04:15:08;;;;;;;4.40;3.30;;;19.60;30.20;;;;;;10582558;27;20233;-74
2022/06/18 04:20:19;;;;;;;3.70;3.40;;;19.70;30.90;;;;;;10575857;27;20230;-74
2022/06/18 04:25:23;;;;;;;3.60;3.40;;;19.60;31.80;;;;;;10559877;27;20232;-75
2022/06/18 04:30:31;;;;;;;4.10;3.80;;;19.60;30.80;;;;;;10565444;28;20607;-74
2022/06/18 04:35:34;;;;;;;3.90;3.50;;;19.60;31.70;;;;;;10574447;27;20238;-74
2022/06/18 04:40:38;;;;;;;3.90;3.60;;;19.60;30.80;;;;;;10574893;27;20878;-74
2022/06/18 04:46:01;;;;;;;5.50;4.40;;;19.70;30.70;;;;;;10572790;27;20231;-74
2022/06/18 04:51:04;;;;;;;4.30;3.70;;;19.70;31.60;;;;;;10535945;28;20223;-74
2022/06/18 04:56:08;;;;;;;4.70;3.60;;;19.70;31.30;;;;;;10539933;28;20591;-74
2022/06/18 05:01:15;;;;;;;6.30;5.70;;;19.70;31.50;;;;;;10552646;28;20227;-75
2022/06/18 05:06:18;;;;;;;4.97;4.57;;;19.70;32.60;;;;;;10529697;27;20699;-74
2022/06/18 05:11:22;;;;;;;4.10;3.83;;;19.80;32.10;;;;;;10566582;27;20231;-74
2022/06/18 05:16:27;;;;;;;4.03;3.70;;;19.90;32.20;;;;;;10567776;28;20226;-74
2022/06/18 05:21:30;;;;;;;3.73;3.43;;;20.10;32.80;;;;;;10569603;28;20305;-74
2022/06/18 05:26:33;;;;;;;4.47;4.07;;;20.30;32.30;;;;;;10571749;27;20707;-74
2022/06/18 05:31:38;;;;;;;3.80;3.50;;;20.40;32.30;;;;;;10575919;27;20225;-74
2022/06/18 05:36:42;;;;;;;4.47;4.07;;;20.60;32.70;;;;;;10571510;27;20223;-74
2022/06/18 05:41:45;;;;;;;4.37;3.97;;;20.70;32.80;;;;;;10570067;27;20219;-74
2022/06/18 05:46:50;;;;;;;4.93;3.93;;;20.90;33.00;;;;;;10574771;28;20721;-74
2022/06/18 05:51:53;;;;;;;3.83;3.50;;;21.00;33.40;;;;;;10568484;28;20605;-74
2022/06/18 05:56:57;;;;;;;3.23;2.93;;;21.20;32.90;;;;;;10523501;28;20848;-74
2022/06/18 06:02:01;;;;;;;2.97;2.80;;;21.40;32.90;;;;;;10524621;28;20215;-75
2022/06/18 06:07:05;;;;;;;2.70;2.50;;;21.60;32.90;;;;;;10531833;28;20608;-77
2022/06/18 06:12:10;;;;;;;2.93;2.67;;;21.90;32.60;;;;;;10533195;28;20228;-75
2022/06/18 06:17:21;;;;;;;2.70;2.53;;;22.10;32.50;;;;;;10532603;28;20240;-75
2022/06/18 06:22:24;;;;;;;2.90;2.70;;;22.30;32.30;;;;;;10532025;28;20220;-75
2022/06/18 06:27:27;;;;;;;3.87;2.93;;;22.50;31.80;;;;;;10532070;28;20505;-74
2022/06/18 06:32:32;;;;;;;3.23;2.80;;;22.80;32.00;;;;;;10532072;28;20223;-74
2022/06/18 06:37:35;;;;;;;4.20;3.20;;;23.00;32.00;;;;;;10530783;28;20316;-74
2022/06/18 06:42:46;;;;;;;3.70;3.17;;;23.20;31.50;;;;;;10531806;28;20223;-74
2022/06/18 06:47:51;;;;;;;3.50;3.20;;;23.50;31.60;;;;;;10522544;28;20230;-74
2022/06/18 06:52:55;;;;;;;3.20;2.70;;;23.70;31.50;;;;;;10531370;28;20770;-74
2022/06/18 06:57:58;;;;;;;3.00;2.60;;;23.80;31.40;;;;;;10530993;28;20318;-75
2022/06/18 07:03:03;;;;;;;3.30;2.90;;;24.10;31.30;;;;;;10530929;28;20233;-75
2022/06/18 07:08:07;;;;;;;2.90;2.70;;;24.30;31.00;;;;;;10530487;28;20253;-74
2022/06/18 07:13:10;;;;;;;3.40;3.00;;;24.50;31.00;;;;;;10530706;28;20231;-74
2022/06/18 07:18:19;;;;;;;3.00;2.80;;;24.70;30.50;;;;;;10530296;28;20637;-75
2022/06/18 07:23:22;;;;;;;2.77;2.57;;;24.90;30.60;;;;;;10530420;28;20245;-75
2022/06/18 07:28:26;;;;;;;3.63;2.40;;;25.00;30.40;;;;;;10530578;28;20718;-75
2022/06/18 07:33:35;;;;;;;3.17;2.80;;;25.20;30.40;;;;;;10530585;28;20601;-75
2022/06/18 07:38:38;;;;;;;3.13;2.90;;;25.40;30.30;;;;;;10524005;28;20227;-76
2022/06/18 07:43:45;;;;;;;3.70;2.90;;;25.60;30.00;;;;;;10513294;28;20230;-76
2022/06/18 07:48:49;;;;;;;3.47;3.13;;;25.90;30.10;;;;;;10524992;28;20322;-76
2022/06/18 07:53:53;;;;;;;3.20;2.87;;;26.10;29.50;;;;;;10527937;28;20223;-75
2022/06/18 07:58:56;;;;;;;2.60;2.50;;;26.40;29.40;;;;;;10518989;28;20251;-77
2022/06/18 08:04:01;;;;;;;3.50;2.57;;;26.60;29.50;;;;;;10511889;28;20231;-76
2022/06/18 08:09:05;;;;;;;2.27;2.10;;;26.80;29.10;;;;;;10527118;28;20242;-76
2022/06/18 08:14:08;;;;;;;2.40;2.20;;;27.10;28.80;;;;;;10535355;28;20235;-77
2022/06/18 08:19:13;;;;;;;2.47;2.37;;;27.30;28.60;;;;;;10526075;28;20246;-76
2022/06/18 08:24:23;;;;;;;2.43;2.10;;;27.60;27.70;;;;;;10536159;28;20643;-76
2022/06/18 08:29:27;;;;;;;2.17;2.00;;;27.90;27.70;;;;;;10536931;28;20243;-76
2022/06/18 08:34:31;;;;;;;1.90;1.80;;;28.20;26.70;;;;;;10536273;28;20227;-74
2022/06/18 08:39:35;;;;;;;3.63;2.00;;;28.40;25.50;;;;;;10535848;28;20230;-74
2022/06/18 08:44:51;;;;;;;1.90;1.80;;;28.70;25.60;;;;;;10535550;28;20699;-74
2022/06/18 08:50:19;;;;;;;1.67;1.57;;;29.00;25.00;;;;;;10517868;28;20318;-74
2022/06/18 08:55:33;;;;;;;1.60;1.50;;;29.30;24.10;;;;;;10493380;28;20643;-74
2022/06/18 09:00:47;;;;;;;1.67;1.57;;;29.50;23.00;;;;;;10515045;28;20235;-74
2022/06/18 09:06:11;;;;;;;2.63;1.70;;;29.80;22.40;;;;;;10534603;28;20239;-75
2022/06/18 09:11:23;;;;;;;1.80;1.70;;;30.00;23.40;;;;;;10576800;28;20231;-75
2022/06/18 09:16:34;;;;;;;1.87;1.77;;;30.20;22.10;;;;;;10576808;28;20725;-75
2022/06/18 09:21:44;;;;;;;1.80;1.70;;;30.50;22.70;;;;;;10576618;28;20234;-75
2022/06/18 09:27:01;;;;;;;1.70;1.70;;;30.70;21.90;;;;;;10576647;28;20237;-74
2022/06/18 09:32:08;;;;;;;1.80;1.70;;;30.90;22.20;;;;;;10567885;28;20730;-75
2022/06/18 09:37:19;;;;;;;2.00;1.90;;;31.10;21.70;;;;;;10617769;27;20234;-75
2022/06/18 09:42:25;;;;;;;1.83;1.73;;;31.30;21.20;;;;;;10618187;27;20226;-75
2022/06/18 09:47:39;;;;;;;3.77;1.90;;;31.50;21.90;;;;;;10617955;27;20226;-75
2022/06/18 09:52:49;;;;;;;1.90;1.80;;;31.60;21.90;;;;;;10581730;27;20233;-77
2022/06/18 09:57:56;;;;;;;2.10;2.00;;;31.80;21.50;;;;;;10576018;28;20241;-77
2022/06/18 10:03:05;;;;;;;2.43;1.90;;;32.00;21.90;;;;;;10568740;27;20783;-75
2022/06/18 10:08:11;;;;;;;2.40;2.20;;;32.10;20.80;;;;;;10539431;28;20707;-75
2022/06/18 10:13:18;;;;;;;3.00;2.17;;;32.30;20.80;;;;;;10523691;28;20219;-74
2022/06/18 10:18:35;;;;;;;2.00;1.90;;;32.40;20.20;;;;;;10533917;28;20254;-75
2022/06/18 10:23:51;;;;;;;2.10;2.00;;;32.50;19.80;;;;;;10550879;28;20225;-76
2022/06/18 10:29:07;;;;;;;2.77;2.10;;;32.50;19.90;;;;;;10528914;28;20242;-75
2022/06/18 10:34:22;;;;;;;2.23;2.13;;;32.70;19.20;;;;;;10531208;28;20230;-76
2022/06/18 10:39:36;;;;;;;2.30;2.20;;;32.70;19.40;;;;;;10549252;28;20222;-75
2022/06/18 10:44:54;;;;;;;2.03;1.90;;;32.80;19.20;;;;;;10562472;27;20257;-75
2022/06/18 10:50:01;;;;;;;2.40;2.20;;;32.80;19.00;;;;;;10566330;28;20257;-75
2022/06/18 10:55:13;;;;;;;2.10;2.00;;;32.90;18.70;;;;;;10566877;27;20280;-75
2022/06/18 11:00:25;;;;;;;1.80;1.70;;;33.00;19.00;;;;;;10568494;27;20256;-75
2022/06/18 11:05:32;;;;;;;2.03;1.93;;;33.10;19.00;;;;;;10562646;28;20313;-76
2022/06/18 11:10:39;;;;;;;2.20;2.00;;;33.30;18.50;;;;;;10560207;28;20250;-77
2022/06/18 11:15:42;;;;;;;2.00;1.90;;;33.40;18.90;;;;;;10574050;28;20692;-77
2022/06/18 11:21:01;;;;;;;2.00;1.90;;;33.50;18.40;;;;;;10607436;27;20223;-77
2022/06/18 11:26:10;;;;;;;2.10;2.00;;;33.60;18.40;;;;;;10568889;28;20227;-76
2022/06/18 11:31:23;;;;;;;2.20;2.10;;;33.70;17.50;;;;;;10577694;28;20668;-77
2022/06/18 11:36:47;;;;;;;2.00;1.90;;;33.80;17.80;;;;;;10582301;27;20278;-76
2022/06/18 11:41:54;;;;;;;1.70;1.60;;;33.80;17.60;;;;;;10615190;27;20344;-75
2022/06/18 11:47:04;;;;;;;2.67;1.97;;;34.00;16.70;;;;;;10608961;27;20223;-76
2022/06/18 11:52:14;;;;;;;2.00;1.90;;;33.90;16.50;;;;;;10561745;28;20248;-75
2022/06/18 11:57:25;;;;;;;3.07;1.83;;;34.00;16.40;;;;;;10558417;28;20233;-75
2022/06/18 12:02:42;;;;;;;2.00;1.80;;;34.00;16.60;;;;;;10552897;28;20216;-75
2022/06/18 12:07:52;;;;;;;2.00;1.90;;;34.10;16.30;;;;;;10549341;28;20859;-75
2022/06/18 12:13:08;;;;;;;2.30;2.00;;;34.20;16.00;;;;;;10520772;28;20229;-75
2022/06/18 12:18:19;;;;;;;2.17;2.00;;;34.20;16.50;;;;;;10512148;28;20675;-75
2022/06/18 12:23:32;;;;;;;2.00;1.90;;;34.20;15.80;;;;;;10539917;28;20703;-75
2022/06/18 12:28:46;;;;;;;2.23;2.10;;;34.30;15.40;;;;;;10544735;28;20219;-75
2022/06/18 12:34:00;;;;;;;2.37;1.93;;;34.20;15.20;;;;;;10550968;28;20222;-74
2022/06/18 12:39:10;;;;;;;3.10;2.07;;;34.10;15.10;;;;;;10552913;27;20696;-75
2022/06/18 12:44:26;;;;;;;2.27;2.07;;;34.10;15.20;;;;;;10556440;27;20387;-75
2022/06/18 12:49:38;;;;;;;3.53;1.83;;;34.10;15.90;;;;;;10566287;27;20223;-75
2022/06/18 12:54:56;;;;;;;2.63;2.13;;;34.10;15.00;;;;;;10516075;28;20251;-75
2022/06/18 13:00:07;;;;;;;2.40;2.07;;;34.10;15.00;;;;;;10520136;28;20226;-75
2022/06/18 13:05:21;;;;;;;2.40;2.20;;;34.20;15.70;;;;;;10513783;28;20725;-75
2022/06/18 13:10:33;;;;;;;3.80;2.20;;;34.20;14.90;;;;;;10515649;28;20257;-75
2022/06/18 13:15:42;;;;;;;3.37;2.10;;;34.20;14.60;;;;;;10514548;28;20231;-75
2022/06/18 13:20:49;;;;;;;3.57;2.20;;;34.30;14.70;;;;;;10511593;28;20306;-75
2022/06/18 13:31:23;;;;;;;2.70;2.13;;;34.50;14.90;;;;;;10550318;27;20218;-75
2022/06/18 13:36:37;;;;;;;2.70;2.30;;;34.50;14.10;;;;;;10544979;27;20224;-76
2022/06/18 13:41:46;;;;;;;3.23;2.10;;;34.60;13.80;;;;;;10534287;28;20249;-76
2022/06/18 13:47:00;;;;;;;5.67;2.40;;;34.60;14.60;;;;;;10532704;28;20763;-76
2022/06/18 13:52:06;;;;;;;4.27;2.00;;;34.60;14.00;;;;;;10575901;27;20712;-76
2022/06/18 13:57:11;;;;;;;4.00;2.30;;;34.60;14.00;;;;;;10585226;27;20226;-77
2022/06/18 14:02:28;;;;;;;4.53;2.13;;;34.70;14.30;;;;;;10618397;27;20222;-77
2022/06/18 14:07:33;;;;;;;4.87;2.30;;;34.80;13.70;;;;;;10565027;27;20232;-75
2022/06/18 14:12:38;;;;;;;4.87;2.20;;;34.90;13.90;;;;;;10572587;27;20229;-75
2022/06/18 14:17:45;;;;;;;3.73;2.13;;;35.00;14.20;;;;;;10574262;28;20266;-75
2022/06/18 14:22:59;;;;;;;3.93;2.40;;;35.10;13.20;;;;;;10574219;27;20235;-75
2022/06/18 14:28:02;;;;;;;4.17;2.00;;;35.10;13.20;;;;;;10556700;28;20610;-75
2022/06/18 14:33:15;;;;;;;2.87;2.40;;;35.20;13.40;;;;;;10573436;27;20230;-74
2022/06/18 14:38:19;;;;;;;5.00;2.40;;;35.20;13.20;;;;;;10573401;28;20330;-75
2022/06/18 14:43:40;;;;;;;4.43;2.40;;;35.20;13.30;;;;;;10576542;27;20723;-75
2022/06/18 14:49:25;;;;;;;3.23;2.13;;;35.30;13.20;;;;;;10550316;27;20229;-75
2022/06/18 14:55:20;;;;;;;6.03;2.40;;;35.40;13.30;;;;;;10547891;27;20230;-75
2022/06/18 15:00:40;;;;;;;4.87;2.20;;;35.40;13.30;;;;;;10477277;28;20601;-75
2022/06/18 15:05:45;;;;;;;4.43;2.20;;;35.50;12.60;;;;;;10559984;28;20223;-76
2022/06/18 15:10:51;;;;;;;5.90;2.40;;;35.50;12.50;;;;;;10570528;28;20231;-75
2022/06/18 15:16:09;;;;;;;3.87;2.10;;;35.50;12.50;;;;;;10580296;27;20226;-75
2022/06/18 15:21:28;;;;;;;3.73;2.20;;;35.50;12.60;;;;;;10565704;28;20233;-75
2022/06/18 15:26:35;;;;;;;4.70;2.40;;;35.50;12.30;;;;;;10571651;28;20228;-75
2022/06/18 15:31:40;;;;;;;6.03;2.40;;;35.50;12.50;;;;;;10571811;28;20242;-75
2022/06/18 15:36:44;;;;;;;5.97;2.77;;;35.50;12.20;;;;;;10571517;28;20739;-75
2022/06/18 15:41:51;;;;;;;5.03;2.50;;;35.60;12.00;;;;;;10571644;28;20636;-76
2022/06/18 15:46:57;;;;;;;4.00;2.17;;;35.60;11.80;;;;;;10567998;28;20242;-75
2022/06/18 15:52:03;;;;;;;10.90;2.40;;;35.60;12.10;;;;;;10567724;28;20256;-75
2022/06/18 15:57:13;;;;;;;5.13;2.17;;;35.50;11.80;;;;;;10539172;27;20233;-75
2022/06/18 16:02:18;;;;;;;4.70;2.33;;;35.40;11.70;;;;;;10571202;27;20769;-75
2022/06/18 16:07:23;;;;;;;3.40;2.10;;;35.40;12.60;;;;;;10573590;27;20250;-75
2022/06/18 16:12:33;;;;;;;6.80;2.17;;;35.40;12.30;;;;;;10580322;28;20695;-75
2022/06/18 16:17:37;;;;;;;4.33;2.17;;;35.40;12.00;;;;;;10580133;28;20267;-75
2022/06/18 16:22:41;;;;;;;4.63;3.93;;;35.40;12.50;;;;;;10568846;28;20256;-75
2022/06/18 16:27:55;;;;;;;3.77;2.50;;;35.30;12.60;;;;;;10559804;28;20610;-77
2022/06/18 16:33:20;;;;;;;6.23;3.30;;;35.30;12.90;;;;;;10556761;28;20226;-77
2022/06/18 16:38:34;;;;;;;4.33;2.40;;;35.30;12.50;;;;;;10498068;28;20237;-77
2022/06/18 16:43:37;;;;;;;3.90;2.50;;;35.30;12.30;;;;;;10509721;28;20225;-77
2022/06/18 16:48:41;;;;;;;2.33;2.03;;;35.20;12.90;;;;;;10507113;28;20229;-77
2022/06/18 16:53:47;;;;;;;3.67;1.90;;;35.20;13.00;;;;;;10521926;28;20225;-77
2022/06/18 16:58:50;;;;;;;4.80;1.83;;;35.20;12.80;;;;;;10544363;28;20299;-77
2022/06/18 17:03:54;;;;;;;4.20;2.23;;;35.20;12.70;;;;;;10547518;27;20226;-77
2022/06/18 17:08:58;;;;;;;8.33;2.50;;;35.10;12.80;;;;;;10551875;27;20247;-77
2022/06/18 17:14:02;;;;;;;5.23;2.30;;;35.10;12.30;;;;;;10547628;27;20632;-77
2022/06/18 17:19:05;;;;;;;5.07;2.50;;;35.10;12.60;;;;;;10548355;28;20225;-77
2022/06/18 17:34:53;;;;;;;5.00;2.50;;;35.00;13.10;;;;;;10549729;28;20316;-77
2022/06/18 17:39:59;;;;;;;6.43;2.80;;;34.90;13.10;;;;;;10556894;28;20231;-76
2022/06/18 17:45:03;;;;;;;9.33;2.93;;;34.80;13.00;;;;;;10556149;27;21252;-76
2022/06/18 17:50:07;;;;;;;4.23;2.80;;;34.80;13.20;;;;;;10552431;27;20315;-76
2022/06/18 17:55:15;;;;;;;5.93;3.03;;;34.70;13.40;;;;;;10548387;28;20364;-76
2022/06/18 18:00:19;;;;;;;5.60;2.70;;;34.70;13.20;;;;;;10547220;28;20234;-76
2022/06/18 18:05:22;;;;;;;4.20;2.50;;;34.70;13.40;;;;;;10549774;27;20233;-76
2022/06/18 18:10:27;;;;;;;5.00;2.70;;;34.70;14.20;;;;;;10553557;28;20239;-76
2022/06/18 18:15:30;;;;;;;5.70;2.20;;;34.70;14.50;;;;;;10553950;27;20244;-76
2022/06/18 18:20:33;;;;;;;7.13;3.13;;;34.60;14.50;;;;;;10547712;27;20228;-76
2022/06/18 18:25:42;;;;;;;4.33;2.60;;;34.60;14.70;;;;;;10547723;28;20228;-76
2022/06/18 18:30:45;;;;;;;4.37;2.60;;;34.50;15.70;;;;;;10551169;28;20826;-76
2022/06/18 18:35:49;;;;;;;7.40;2.60;;;34.40;15.50;;;;;;10548692;28;20276;-76
2022/06/18 18:40:54;;;;;;;5.87;2.47;;;34.30;15.90;;;;;;10547246;28;20237;-76
2022/06/18 18:45:57;;;;;;;6.20;2.67;;;34.20;16.90;;;;;;10549716;27;20230;-76
2022/06/18 18:51:00;;;;;;;5.97;2.40;;;34.10;16.60;;;;;;10547134;28;20598;-76
2022/06/18 18:56:12;;;;;;;5.57;2.60;;;33.90;16.70;;;;;;10502264;28;20228;-76
2022/06/18 19:01:20;;;;;;;6.47;2.60;;;33.70;17.10;;;;;;10508274;28;20246;-76
2022/06/18 19:06:23;;;;;;;4.20;2.57;;;33.60;16.90;;;;;;10506004;28;20347;-75
2022/06/18 19:11:29;;;;;;;6.03;2.60;;;33.40;16.80;;;;;;10508959;28;20224;-76
2022/06/18 19:16:32;;;;;;;7.17;2.90;;;33.20;17.50;;;;;;10507074;28;20224;-75
2022/06/18 19:21:35;;;;;;;6.10;2.73;;;33.10;17.50;;;;;;10506267;28;20298;-76
2022/06/18 19:26:40;;;;;;;8.07;3.20;;;32.90;17.60;;;;;;10505702;28;20246;-76
2022/06/18 19:31:43;;;;;;;7.33;3.00;;;32.80;18.10;;;;;;10505478;28;20241;-76
2022/06/18 19:36:50;;;;;;;4.93;2.83;;;32.50;17.90;;;;;;10501473;28;20780;-76
2022/06/18 19:41:55;;;;;;;5.30;2.50;;;32.30;18.20;;;;;;10509146;28;20233;-76
2022/06/18 19:46:59;;;;;;;4.27;2.50;;;32.20;18.30;;;;;;10516022;28;20230;-76
2022/06/18 19:52:02;;;;;;;6.63;2.40;;;32.00;18.30;;;;;;10515433;28;20334;-76
2022/06/18 19:57:27;;;;;;;5.37;2.90;;;31.80;18.60;;;;;;10513257;28;20703;-76
2022/06/18 20:02:30;;;;;;;5.13;3.10;;;31.60;18.90;;;;;;10518074;28;20226;-76
2022/06/18 20:07:34;;;;;;;6.30;3.00;;;31.50;18.80;;;;;;10516693;28;20770;-76
2022/06/18 20:12:42;;;;;;;4.00;2.80;;;31.40;19.10;;;;;;10512503;28;20219;-76
2022/06/18 20:17:45;;;;;;;7.10;3.10;;;31.20;19.50;;;;;;10510542;28;20238;-76
2022/06/18 20:22:49;;;;;;;4.83;2.70;;;31.00;19.20;;;;;;10516587;28;20936;-76
2022/06/18 20:27:54;;;;;;;7.30;2.83;;;30.80;19.40;;;;;;10506842;28;20236;-76
2022/06/18 20:32:58;;;;;;;5.77;2.70;;;30.50;19.70;;;;;;10516417;28;20576;-76
2022/06/18 20:38:01;;;;;;;3.90;2.70;;;30.40;19.80;;;;;;10537950;28;20262;-76
2022/06/18 20:43:06;;;;;;;4.77;3.03;;;30.20;20.20;;;;;;10526203;28;20234;-76
2022/06/18 20:48:09;;;;;;;4.27;3.20;;;30.10;20.60;;;;;;10503837;28;20234;-76
2022/06/18 20:53:13;;;;;;;6.83;3.30;;;29.90;20.60;;;;;;10508019;28;20236;-76
2022/06/18 20:58:17;;;;;;;3.80;2.50;;;29.70;20.80;;;;;;10553080;28;20219;-76
2022/06/18 21:03:21;;;;;;;5.03;3.03;;;29.50;20.90;;;;;;10555799;27;20783;-75
2022/06/18 21:08:27;;;;;;;6.43;3.13;;;29.30;20.70;;;;;;10552767;28;20233;-76
2022/06/18 21:13:35;;;;;;;7.17;2.83;;;29.10;20.80;;;;;;10552653;27;20231;-76
2022/06/18 21:18:38;;;;;;;4.27;2.90;;;28.90;21.50;;;;;;10553231;27;20225;-76
2022/06/18 21:23:42;;;;;;;4.63;2.77;;;28.70;21.20;;;;;;10554252;28;20218;-76
2022/06/18 21:28:47;;;;;;;4.70;2.80;;;28.60;21.40;;;;;;10552015;27;20280;-76
2022/06/18 21:39:09;;;;;;;4.17;2.60;;;28.20;21.90;;;;;;10486405;28;20242;-75
2022/06/18 21:44:18;;;;;;;3.37;2.40;;;28.10;22.10;;;;;;10503586;28;20624;-75
2022/06/18 21:49:22;;;;;;;5.63;2.87;;;28.00;22.60;;;;;;10501609;28;20223;-75
2022/06/18 21:54:27;;;;;;;4.00;2.37;;;27.90;22.30;;;;;;10500521;28;20235;-75
2022/06/18 21:59:34;;;;;;;4.93;2.90;;;27.80;22.50;;;;;;10502403;28;20232;-75
2022/06/18 22:04:37;;;;;;;4.50;2.73;;;27.60;23.60;;;;;;10500823;28;20897;-75
2022/06/18 22:09:41;;;;;;;4.77;3.27;;;27.40;23.10;;;;;;10502004;28;20223;-75
2022/06/18 22:20:08;;;;;;;5.73;3.23;;;27.10;24.20;;;;;;10543994;28;20225;-75
2022/06/18 22:25:14;;;;;;;6.77;3.00;;;26.90;24.10;;;;;;10550515;27;20242;-75
2022/06/18 22:30:19;;;;;;;4.13;3.47;;;26.80;24.10;;;;;;10545147;27;20231;-75
2022/06/18 22:35:23;;;;;;;4.80;3.30;;;26.70;25.00;;;;;;10551603;27;20245;-75
2022/06/18 22:40:27;;;;;;;5.77;3.50;;;26.70;24.50;;;;;;10556323;28;20225;-75
2022/06/18 22:45:32;;;;;;;5.90;3.37;;;26.60;24.50;;;;;;10555893;28;20227;-75
2022/06/18 22:50:36;;;;;;;4.97;3.17;;;26.50;24.90;;;;;;10551241;28;20245;-75
2022/06/18 22:55:39;;;;;;;3.90;2.83;;;26.50;24.70;;;;;;10550396;27;20233;-75
2022/06/18 23:00:44;;;;;;;4.53;3.47;;;26.40;24.70;;;;;;10551049;27;20222;-75
2022/06/18 23:05:48;;;;;;;4.27;3.30;;;26.30;25.40;;;;;;10552325;28;20231;-75
2022/06/18 23:10:52;;;;;;;7.60;3.60;;;26.30;25.00;;;;;;10550527;28;20272;-75
2022/06/18 23:15:57;;;;;;;3.63;3.17;;;26.20;25.20;;;;;;10552634;27;20289;-75
2022/06/18 23:21:00;;;;;;;4.67;3.00;;;26.20;25.60;;;;;;10548397;28;20216;-75
2022/06/18 23:26:03;;;;;;;4.10;2.87;;;26.10;25.30;;;;;;10545850;28;20241;-75
2022/06/18 23:31:08;;;;;;;3.40;2.80;;;26.10;25.30;;;;;;10541910;28;20220;-75
2022/06/18 23:36:12;;;;;;;4.67;2.63;;;26.10;25.90;;;;;;10549219;28;20817;-75
2022/06/18 23:41:17;;;;;;;3.93;2.67;;;26.00;25.30;;;;;;10547925;28;20302;-75
2022/06/18 23:46:22;;;;;;;4.80;2.90;;;26.00;25.50;;;;;;10542741;28;20859;-75
2022/06/18 23:51:25;;;;;;;3.50;2.70;;;25.90;25.90;;;;;;10545569;28;20222;-75
2022/06/18 23:56:29;;;;;;;4.30;2.80;;;25.90;25.60;;;;;;10548771;28;20710;-75
